Time;durP1;ratioP1;P1;durP2;ratioP2;P2;SDS_P1;SDS_P2;PMS_P1;PMS_P2;Temp;Humidity;BMP_temperature;BMP_pressure;BME280_temperature;BME280_humidity;BME280_pressure;Samples;Min_cycle;Max_cycle;Signal;HPM_P1;HPM_P2
2022/08/29 00:00:27;;;;;;;2.57;1.53;;;;;;;;;;5085854;28;20535;-61
2022/08/29 00:02:58;;;;;;;2.47;1.50;;;;;;;;;;5084226;28;20213;-61
2022/08/29 00:05:32;;;;;;;5.33;1.53;;;;;;;;;;5070554;28;20189;-61
2022/08/29 00:08:19;;;;;;;2.10;1.20;;;;;;;;;;5056607;28;20208;-62
2022/08/29 00:10:48;;;;;;;1.67;1.47;;;;;;;;;;5065085;28;20244;-62
2022/08/29 00:13:18;;;;;;;2.90;1.10;;;;;;;;;;5086536;28;20189;-61
2022/08/29 00:15:49;;;;;;;2.57;1.30;;;;;;;;;;5088959;28;20185;-61
2022/08/29 00:18:19;;;;;;;2.80;1.40;;;;;;;;;;5093507;28;20197;-61
2022/08/29 00:20:50;;;;;;;3.83;1.43;;;;;;;;;;5064307;28;20253;-62
2022/08/29 00:23:20;;;;;;;3.77;1.40;;;;;;;;;;5068719;28;20201;-61
2022/08/29 00:25:56;;;;;;;2.80;1.50;;;;;;;;;;5070919;28;20185;-62
2022/08/29 00:28:24;;;;;;;2.20;1.40;;;;;;;;;;5087210;28;20258;-61
2022/08/29 00:31:02;;;;;;;2.47;1.30;;;;;;;;;;5079020;28;21294;-62
2022/08/29 00:33:32;;;;;;;1.53;1.20;;;;;;;;;;5086698;28;20192;-62
2022/08/29 00:36:08;;;;;;;3.50;1.67;;;;;;;;;;5084719;28;20208;-62
2022/08/29 00:38:39;;;;;;;2.83;1.60;;;;;;;;;;5082404;28;20197;-61
2022/08/29 00:41:11;;;;;;;2.43;1.20;;;;;;;;;;5085692;28;20250;-62
2022/08/29 00:43:42;;;;;;;3.10;1.70;;;;;;;;;;5065194;28;20220;-61
2022/08/29 00:46:29;;;;;;;1.73;1.20;;;;;;;;;;5070232;28;20196;-61
2022/08/29 00:49:03;;;;;;;3.80;1.57;;;;;;;;;;5055509;28;20215;-61
2022/08/29 00:51:34;;;;;;;3.03;1.23;;;;;;;;;;5052947;28;20216;-61
2022/08/29 00:54:07;;;;;;;2.73;1.20;;;;;;;;;;5086865;28;20204;-61
2022/08/29 00:56:39;;;;;;;1.90;1.23;;;;;;;;;;5065835;28;20200;-60
2022/08/29 00:59:14;;;;;;;2.60;1.40;;;;;;;;;;5084773;28;20207;-61
2022/08/29 01:01:47;;;;;;;2.70;1.47;;;;;;;;;;5074726;28;20223;-61
2022/08/29 01:04:25;;;;;;;1.83;1.30;;;;;;;;;;5084435;28;20196;-61
2022/08/29 01:06:56;;;;;;;1.77;1.30;;;;;;;;;;5063488;28;20190;-61
2022/08/29 01:09:36;;;;;;;3.23;1.30;;;;;;;;;;5086039;28;20200;-61
2022/08/29 01:12:15;;;;;;;2.27;1.20;;;;;;;;;;5068104;28;20744;-61
2022/08/29 01:14:48;;;;;;;2.87;1.40;;;;;;;;;;5055657;28;20197;-61
2022/08/29 01:17:23;;;;;;;3.67;1.60;;;;;;;;;;5069069;28;20197;-61
2022/08/29 01:20:06;;;;;;;2.23;1.50;;;;;;;;;;5082483;28;20300;-61
2022/08/29 01:22:59;;;;;;;2.37;1.30;;;;;;;;;;5085855;28;20227;-61
2022/08/29 01:25:49;;;;;;;3.77;1.47;;;;;;;;;;5090175;28;20196;-61
2022/08/29 01:28:31;;;;;;;1.67;1.27;;;;;;;;;;5089403;28;20200;-61
2022/08/29 01:31:09;;;;;;;1.87;1.20;;;;;;;;;;5084409;28;20547;-61
2022/08/29 01:33:44;;;;;;;4.57;1.30;;;;;;;;;;5089658;28;20588;-61
2022/08/29 01:36:15;;;;;;;1.77;1.30;;;;;;;;;;5090950;28;20204;-61
2022/08/29 01:38:51;;;;;;;2.10;1.20;;;;;;;;;;5085905;28;20208;-61
2022/08/29 01:41:35;;;;;;;1.50;1.27;;;;;;;;;;5074641;28;20221;-61
2022/08/29 01:44:10;;;;;;;3.03;1.20;;;;;;;;;;5072751;28;20212;-61
2022/08/29 01:46:44;;;;;;;2.93;1.40;;;;;;;;;;5053625;28;20208;-61
2022/08/29 01:49:19;;;;;;;1.93;1.60;;;;;;;;;;5089653;28;20201;-61
2022/08/29 01:51:52;;;;;;;1.80;1.40;;;;;;;;;;5089839;28;20193;-61
2022/08/29 01:54:24;;;;;;;2.13;1.50;;;;;;;;;;5088660;28;20201;-61
2022/08/29 01:56:53;;;;;;;2.13;1.40;;;;;;;;;;5066557;28;20266;-62
2022/08/29 01:59:26;;;;;;;2.70;1.50;;;;;;;;;;5089609;28;20625;-61
2022/08/29 02:02:07;;;;;;;2.33;1.40;;;;;;;;;;5072722;28;20223;-61
2022/08/29 02:04:39;;;;;;;3.30;1.57;;;;;;;;;;5089098;28;20200;-61
2022/08/29 02:07:10;;;;;;;2.63;1.83;;;;;;;;;;5085631;28;20217;-62
2022/08/29 02:09:46;;;;;;;1.90;1.57;;;;;;;;;;5087819;28;20608;-61
2022/08/29 02:12:25;;;;;;;2.27;1.37;;;;;;;;;;5088529;28;20293;-61
2022/08/29 02:14:54;;;;;;;2.57;1.43;;;;;;;;;;5083982;28;20208;-61
2022/08/29 02:17:32;;;;;;;2.67;1.87;;;;;;;;;;5077418;28;20200;-61
2022/08/29 02:20:07;;;;;;;2.10;1.30;;;;;;;;;;5085784;28;20213;-61
2022/08/29 02:22:50;;;;;;;2.77;1.60;;;;;;;;;;5042463;28;20273;-62
2022/08/29 02:28:12;;;;;;;1.93;1.30;;;;;;;;;;5089315;28;20184;-61
2022/08/29 02:30:45;;;;;;;1.80;1.33;;;;;;;;;;5082077;28;20780;-61
2022/08/29 02:33:24;;;;;;;3.30;1.40;;;;;;;;;;5089559;28;20197;-61
2022/08/29 02:35:58;;;;;;;1.87;1.27;;;;;;;;;;5072338;28;20205;-61
2022/08/29 02:39:01;;;;;;;1.50;1.40;;;;;;;;;;5068308;28;20192;-61
2022/08/29 02:41:32;;;;;;;1.43;1.33;;;;;;;;;;5088857;28;20201;-61
2022/08/29 02:44:08;;;;;;;2.67;1.27;;;;;;;;;;5080088;28;20232;-61
2022/08/29 02:46:39;;;;;;;1.40;1.30;;;;;;;;;;5086319;28;20208;-61
2022/08/29 02:49:15;;;;;;;2.07;1.40;;;;;;;;;;5087819;28;20273;-61
2022/08/29 02:51:45;;;;;;;4.93;1.57;;;;;;;;;;5088672;28;20208;-61
2022/08/29 02:54:16;;;;;;;3.03;1.43;;;;;;;;;;5086748;28;20258;-61
2022/08/29 02:56:49;;;;;;;1.70;1.30;;;;;;;;;;5082980;28;20197;-61
2022/08/29 02:59:37;;;;;;;2.93;1.63;;;;;;;;;;5073164;28;20220;-61
2022/08/29 03:02:07;;;;;;;2.13;1.27;;;;;;;;;;5088953;28;20201;-61
2022/08/29 03:04:36;;;;;;;2.97;1.57;;;;;;;;;;5089152;28;20224;-61
2022/08/29 03:07:11;;;;;;;2.17;1.40;;;;;;;;;;5068448;28;20202;-61
2022/08/29 03:09:43;;;;;;;2.27;1.47;;;;;;;;;;5068237;28;20197;-61
2022/08/29 03:12:15;;;;;;;1.97;1.50;;;;;;;;;;5074613;28;20321;-61
2022/08/29 03:14:46;;;;;;;4.87;1.70;;;;;;;;;;5086701;28;20192;-61
2022/08/29 03:17:20;;;;;;;2.27;1.47;;;;;;;;;;5095486;28;20194;-61
2022/08/29 03:19:51;;;;;;;9.40;1.60;;;;;;;;;;5085307;28;20209;-61
2022/08/29 03:22:26;;;;;;;1.60;1.23;;;;;;;;;;5072065;28;20251;-61
2022/08/29 03:24:56;;;;;;;2.60;1.20;;;;;;;;;;5086893;28;20193;-61
2022/08/29 03:27:25;;;;;;;1.83;1.47;;;;;;;;;;5082969;28;20671;-61
2022/08/29 03:30:02;;;;;;;2.23;1.20;;;;;;;;;;5088922;28;20193;-61
2022/08/29 03:32:31;;;;;;;3.57;1.40;;;;;;;;;;5061527;28;20930;-62
2022/08/29 03:35:03;;;;;;;3.23;1.70;;;;;;;;;;5085864;28;20197;-62
2022/08/29 03:37:37;;;;;;;2.57;1.47;;;;;;;;;;5089315;28;20254;-61
2022/08/29 03:40:08;;;;;;;4.53;1.63;;;;;;;;;;5088356;28;20578;-61
2022/08/29 03:42:41;;;;;;;4.87;1.60;;;;;;;;;;5088278;28;20220;-61
2022/08/29 03:45:12;;;;;;;2.83;1.43;;;;;;;;;;5084875;28;20205;-62
2022/08/29 03:47:45;;;;;;;3.07;1.40;;;;;;;;;;5087825;28;20736;-61
2022/08/29 03:50:23;;;;;;;3.60;1.80;;;;;;;;;;5084633;28;20189;-61
2022/08/29 03:52:51;;;;;;;1.67;1.13;;;;;;;;;;5094748;28;20253;-61
2022/08/29 03:55:39;;;;;;;2.90;1.37;;;;;;;;;;5087995;28;20216;-61
2022/08/29 03:58:09;;;;;;;2.17;1.50;;;;;;;;;;5086989;28;20189;-61
2022/08/29 04:00:41;;;;;;;3.53;1.53;;;;;;;;;;5070745;28;20197;-61
2022/08/29 04:03:12;;;;;;;2.60;1.53;;;;;;;;;;5087507;28;20212;-61
2022/08/29 04:05:43;;;;;;;2.37;1.60;;;;;;;;;;5076348;28;20205;-61
2022/08/29 04:08:18;;;;;;;4.80;1.50;;;;;;;;;;5084552;28;20227;-61
2022/08/29 04:10:50;;;;;;;3.00;1.50;;;;;;;;;;5065101;28;20237;-61
2022/08/29 04:13:24;;;;;;;2.83;1.33;;;;;;;;;;5087288;28;20192;-61
2022/08/29 04:16:11;;;;;;;4.63;1.80;;;;;;;;;;5072626;28;20197;-61
2022/08/29 04:18:41;;;;;;;3.83;1.53;;;;;;;;;;5091938;28;20200;-61
2022/08/29 04:21:11;;;;;;;2.87;1.63;;;;;;;;;;5082729;28;20212;-61
2022/08/29 04:23:48;;;;;;;3.33;1.57;;;;;;;;;;5087188;28;20209;-61
2022/08/29 04:26:20;;;;;;;3.87;1.33;;;;;;;;;;5070950;28;20243;-61
2022/08/29 04:29:09;;;;;;;5.30;1.80;;;;;;;;;;5073035;28;20676;-61
2022/08/29 04:31:42;;;;;;;2.47;1.53;;;;;;;;;;5083027;28;20199;-61
2022/08/29 04:34:14;;;;;;;3.70;1.60;;;;;;;;;;5053947;28;20798;-61
2022/08/29 04:36:47;;;;;;;3.30;1.63;;;;;;;;;;5046306;28;20193;-61
2022/08/29 04:39:22;;;;;;;3.40;1.50;;;;;;;;;;5087010;28;20193;-61
2022/08/29 04:41:54;;;;;;;3.07;1.80;;;;;;;;;;5071460;28;20221;-61
2022/08/29 04:44:27;;;;;;;5.50;1.60;;;;;;;;;;5083341;28;20227;-61
2022/08/29 04:47:04;;;;;;;2.73;1.40;;;;;;;;;;5075794;28;20200;-61
2022/08/29 04:49:44;;;;;;;3.97;1.70;;;;;;;;;;5086277;28;20197;-61
2022/08/29 04:52:20;;;;;;;2.20;1.60;;;;;;;;;;5086692;28;20207;-61
2022/08/29 04:54:49;;;;;;;3.20;1.77;;;;;;;;;;5062253;28;20574;-61
2022/08/29 04:57:24;;;;;;;3.97;1.60;;;;;;;;;;5058252;28;20214;-61
2022/08/29 04:59:57;;;;;;;3.33;1.80;;;;;;;;;;5089224;28;20243;-61
2022/08/29 05:02:27;;;;;;;3.00;1.50;;;;;;;;;;5076173;28;20733;-61
2022/08/29 05:05:02;;;;;;;2.57;1.73;;;;;;;;;;5071134;28;20205;-61
2022/08/29 05:07:34;;;;;;;3.03;1.70;;;;;;;;;;5087170;28;20300;-61
2022/08/29 05:10:13;;;;;;;4.90;1.67;;;;;;;;;;5075255;28;20204;-61
2022/08/29 05:12:43;;;;;;;3.40;1.70;;;;;;;;;;5087460;28;20228;-61
2022/08/29 05:15:13;;;;;;;2.50;1.73;;;;;;;;;;5072533;28;20649;-61
2022/08/29 05:17:54;;;;;;;3.27;1.43;;;;;;;;;;5088003;28;20197;-61
2022/08/29 05:20:27;;;;;;;2.63;1.80;;;;;;;;;;5085608;28;20325;-61
2022/08/29 05:22:56;;;;;;;2.23;1.50;;;;;;;;;;5086408;28;20612;-62
2022/08/29 05:25:25;;;;;;;2.67;1.70;;;;;;;;;;5087757;28;20205;-61
2022/08/29 05:27:54;;;;;;;3.03;1.70;;;;;;;;;;5071802;28;20207;-62
2022/08/29 05:30:22;;;;;;;4.47;1.60;;;;;;;;;;5090480;28;20188;-61
2022/08/29 05:33:01;;;;;;;3.37;1.33;;;;;;;;;;5083660;28;20233;-61
2022/08/29 05:35:39;;;;;;;10.60;2.30;;;;;;;;;;5064785;28;20211;-61
2022/08/29 05:38:09;;;;;;;5.70;1.83;;;;;;;;;;5089825;28;20818;-61
2022/08/29 05:40:40;;;;;;;5.77;2.27;;;;;;;;;;5089805;28;20197;-61
2022/08/29 05:43:12;;;;;;;3.03;2.47;;;;;;;;;;5084908;28;20323;-61
2022/08/29 05:45:46;;;;;;;4.80;2.50;;;;;;;;;;5073881;28;20216;-61
2022/08/29 05:48:18;;;;;;;3.10;2.47;;;;;;;;;;5090047;28;20208;-61
2022/08/29 05:50:54;;;;;;;4.23;2.47;;;;;;;;;;5087551;28;20305;-61
2022/08/29 05:53:24;;;;;;;4.63;2.67;;;;;;;;;;5086612;28;20222;-61
2022/08/29 05:55:53;;;;;;;3.80;2.80;;;;;;;;;;5069454;28;20278;-61
2022/08/29 05:58:27;;;;;;;6.07;2.90;;;;;;;;;;5090221;28;20197;-62
2022/08/29 06:01:00;;;;;;;5.00;3.07;;;;;;;;;;5086851;28;20250;-61
2022/08/29 06:03:33;;;;;;;7.13;3.57;;;;;;;;;;5088283;28;20221;-61
2022/08/29 06:06:06;;;;;;;3.63;2.80;;;;;;;;;;5070953;28;20646;-61
2022/08/29 06:08:37;;;;;;;3.93;2.50;;;;;;;;;;5085963;28;20215;-61
2022/08/29 06:11:13;;;;;;;5.60;2.70;;;;;;;;;;5043773;28;20496;-61
2022/08/29 06:13:48;;;;;;;4.50;2.80;;;;;;;;;;5060546;28;20182;-61
2022/08/29 06:16:18;;;;;;;5.30;3.20;;;;;;;;;;5044258;28;20248;-61
2022/08/29 06:18:46;;;;;;;5.47;2.97;;;;;;;;;;5076877;28;20214;-60
2022/08/29 06:21:14;;;;;;;6.20;3.00;;;;;;;;;;5047872;28;20210;-60
2022/08/29 06:23:45;;;;;;;4.53;2.43;;;;;;;;;;5058660;28;20218;-61
2022/08/29 06:26:14;;;;;;;5.33;3.20;;;;;;;;;;5059668;28;20194;-61
2022/08/29 06:28:48;;;;;;;7.33;3.43;;;;;;;;;;5044609;28;20198;-61
2022/08/29 06:31:25;;;;;;;5.13;3.17;;;;;;;;;;5077337;28;20211;-61
2022/08/29 06:33:57;;;;;;;3.70;3.30;;;;;;;;;;5047464;28;20198;-61
2022/08/29 06:36:30;;;;;;;5.90;3.50;;;;;;;;;;5078584;28;20205;-61
2022/08/29 06:39:05;;;;;;;4.93;2.97;;;;;;;;;;5056509;28;20200;-60
2022/08/29 06:41:35;;;;;;;4.53;3.30;;;;;;;;;;5070505;28;20212;-61
2022/08/29 06:44:07;;;;;;;7.23;3.67;;;;;;;;;;5041876;28;20256;-61
2022/08/29 06:46:41;;;;;;;6.07;3.70;;;;;;;;;;5043622;28;20206;-61
2022/08/29 06:49:13;;;;;;;7.83;4.00;;;;;;;;;;5048904;28;20202;-60
2022/08/29 06:51:47;;;;;;;7.33;3.50;;;;;;;;;;5058824;28;20217;-60
2022/08/29 06:54:26;;;;;;;5.13;3.23;;;;;;;;;;5043879;28;20202;-61
2022/08/29 06:56:55;;;;;;;5.00;3.47;;;;;;;;;;5037957;28;20268;-61
2022/08/29 06:59:24;;;;;;;4.23;3.07;;;;;;;;;;5045518;28;20256;-61
2022/08/29 07:01:54;;;;;;;5.37;3.40;;;;;;;;;;5073882;28;20260;-61
2022/08/29 07:04:24;;;;;;;5.83;3.70;;;;;;;;;;5044188;28;20213;-60
2022/08/29 07:06:55;;;;;;;4.63;3.57;;;;;;;;;;5070943;28;20216;-60
2022/08/29 07:09:29;;;;;;;6.93;3.60;;;;;;;;;;5063892;28;20232;-61
2022/08/29 07:12:00;;;;;;;5.73;3.50;;;;;;;;;;5058439;28;20321;-61
2022/08/29 07:14:31;;;;;;;6.93;3.67;;;;;;;;;;5066138;28;20287;-61
2022/08/29 07:17:02;;;;;;;5.57;3.73;;;;;;;;;;5063360;28;20295;-61
2022/08/29 07:19:37;;;;;;;6.00;3.67;;;;;;;;;;5060546;28;20796;-61
2022/08/29 07:22:08;;;;;;;7.53;3.77;;;;;;;;;;5064254;28;20194;-61
2022/08/29 07:24:37;;;;;;;6.00;3.90;;;;;;;;;;5065738;28;20221;-61
2022/08/29 07:27:15;;;;;;;8.83;3.87;;;;;;;;;;5063106;28;20197;-61
2022/08/29 07:29:44;;;;;;;6.50;3.70;;;;;;;;;;5065265;28;20186;-61
2022/08/29 07:32:19;;;;;;;10.63;4.47;;;;;;;;;;5058809;28;20232;-61
2022/08/29 07:34:54;;;;;;;6.40;3.47;;;;;;;;;;5074063;28;20217;-60
2022/08/29 07:37:24;;;;;;;5.40;3.77;;;;;;;;;;5065531;28;20197;-60
2022/08/29 07:39:58;;;;;;;7.50;4.00;;;;;;;;;;5064013;28;20194;-63
2022/08/29 07:42:34;;;;;;;4.47;3.50;;;;;;;;;;5030975;28;20212;-61
2022/08/29 07:45:06;;;;;;;5.47;3.80;;;;;;;;;;5058940;28;20233;-61
2022/08/29 07:47:35;;;;;;;8.97;4.03;;;;;;;;;;5067922;28;20211;-62
2022/08/29 07:50:05;;;;;;;6.30;4.07;;;;;;;;;;5065555;28;20715;-62
2022/08/29 07:52:35;;;;;;;6.17;3.63;;;;;;;;;;5066971;28;20858;-62
2022/08/29 07:55:14;;;;;;;5.43;4.00;;;;;;;;;;5053197;28;20225;-62
2022/08/29 07:57:47;;;;;;;6.53;4.40;;;;;;;;;;5062482;28;20655;-61
2022/08/29 08:00:19;;;;;;;5.63;3.70;;;;;;;;;;5068509;28;20209;-62
2022/08/29 08:02:52;;;;;;;5.73;3.53;;;;;;;;;;5060310;28;20189;-62
2022/08/29 08:05:25;;;;;;;5.33;3.50;;;;;;;;;;5047449;28;20194;-62
2022/08/29 08:07:57;;;;;;;7.17;3.87;;;;;;;;;;5047329;28;20201;-62
2022/08/29 08:10:36;;;;;;;6.87;3.93;;;;;;;;;;5061088;28;20190;-62
2022/08/29 08:13:09;;;;;;;6.23;3.80;;;;;;;;;;5052490;28;20724;-61
2022/08/29 08:15:43;;;;;;;5.70;3.80;;;;;;;;;;5045392;28;20264;-62
2022/08/29 08:18:17;;;;;;;6.33;3.90;;;;;;;;;;5049215;28;20381;-62
2022/08/29 08:20:47;;;;;;;6.43;3.83;;;;;;;;;;5035314;28;20222;-62
2022/08/29 08:23:17;;;;;;;8.33;3.70;;;;;;;;;;5047180;28;20217;-62
2022/08/29 08:25:48;;;;;;;4.53;3.07;;;;;;;;;;5046320;28;20226;-62
2022/08/29 08:28:21;;;;;;;5.37;3.43;;;;;;;;;;5040872;28;20652;-62
2022/08/29 08:30:48;;;;;;;6.30;3.33;;;;;;;;;;5017333;28;20224;-62
2022/08/29 08:33:21;;;;;;;5.97;3.07;;;;;;;;;;5045614;28;20195;-62
2022/08/29 08:35:53;;;;;;;4.20;2.97;;;;;;;;;;5026837;28;20640;-62
2022/08/29 08:38:25;;;;;;;3.73;2.90;;;;;;;;;;5045105;28;20195;-62
2022/08/29 08:41:01;;;;;;;6.40;2.97;;;;;;;;;;5043539;28;20207;-62
2022/08/29 08:43:55;;;;;;;6.30;3.33;;;;;;;;;;5024573;28;20313;-62
2022/08/29 08:46:46;;;;;;;3.77;2.53;;;;;;;;;;5038622;28;20190;-62
2022/08/29 08:49:23;;;;;;;4.13;2.97;;;;;;;;;;5026427;28;20668;-62
2022/08/29 08:51:58;;;;;;;5.40;3.20;;;;;;;;;;5036817;28;20194;-62
2022/08/29 08:54:44;;;;;;;5.47;2.93;;;;;;;;;;5028636;28;20198;-62
2022/08/29 08:57:18;;;;;;;5.97;3.30;;;;;;;;;;5025561;28;20198;-62
2022/08/29 08:59:51;;;;;;;4.30;2.77;;;;;;;;;;5043812;28;20198;-61
2022/08/29 09:02:44;;;;;;;6.77;2.90;;;;;;;;;;5046734;28;20198;-62
2022/08/29 09:05:32;;;;;;;4.73;2.93;;;;;;;;;;5034783;28;20700;-62
2022/08/29 09:08:11;;;;;;;6.53;2.87;;;;;;;;;;5040517;28;20198;-61
2022/08/29 09:10:42;;;;;;;4.00;2.80;;;;;;;;;;5046178;28;20538;-61
2022/08/29 09:13:12;;;;;;;5.23;2.97;;;;;;;;;;5054604;28;20240;-61
2022/08/29 09:15:48;;;;;;;3.63;2.50;;;;;;;;;;5066376;28;20190;-61
2022/08/29 09:18:29;;;;;;;5.20;2.80;;;;;;;;;;5054900;28;20197;-61
2022/08/29 09:21:05;;;;;;;4.57;2.60;;;;;;;;;;5059301;28;20206;-61
2022/08/29 09:23:58;;;;;;;4.87;3.00;;;;;;;;;;5060073;28;20236;-61
2022/08/29 09:26:30;;;;;;;5.40;2.70;;;;;;;;;;5066073;28;20204;-60
2022/08/29 09:29:01;;;;;;;4.73;2.60;;;;;;;;;;5073695;28;20205;-61
2022/08/29 09:31:34;;;;;;;4.67;2.60;;;;;;;;;;5045155;28;20745;-61
2022/08/29 09:34:09;;;;;;;4.87;2.93;;;;;;;;;;5054736;28;20815;-61
2022/08/29 09:36:54;;;;;;;3.73;2.20;;;;;;;;;;5042468;28;20201;-61
2022/08/29 09:39:23;;;;;;;4.63;2.93;;;;;;;;;;5013654;28;20213;-61
2022/08/29 09:42:12;;;;;;;5.93;2.90;;;;;;;;;;5067457;28;20194;-61
2022/08/29 09:44:52;;;;;;;6.73;3.30;;;;;;;;;;5061434;28;20655;-62
2022/08/29 09:47:29;;;;;;;4.03;2.73;;;;;;;;;;5053250;28;20638;-61
2022/08/29 09:50:10;;;;;;;4.60;2.90;;;;;;;;;;5066127;28;20193;-63
2022/08/29 09:52:52;;;;;;;4.33;2.63;;;;;;;;;;5061836;28;20189;-63
2022/08/29 09:55:41;;;;;;;6.23;2.80;;;;;;;;;;5054847;28;20213;-63
2022/08/29 09:58:23;;;;;;;4.23;2.67;;;;;;;;;;5068884;28;20604;-63
2022/08/29 10:01:03;;;;;;;5.07;2.57;;;;;;;;;;5066922;28;20197;-63
2022/08/29 10:03:43;;;;;;;4.97;3.07;;;;;;;;;;5066162;28;20623;-63
2022/08/29 10:06:23;;;;;;;3.83;2.87;;;;;;;;;;5068496;28;20734;-63
2022/08/29 10:09:21;;;;;;;5.33;3.03;;;;;;;;;;5062605;28;20273;-63
2022/08/29 10:12:14;;;;;;;4.77;2.80;;;;;;;;;;5054433;28;20233;-63
2022/08/29 10:14:53;;;;;;;6.37;3.10;;;;;;;;;;5031533;28;20520;-63
2022/08/29 10:20:49;;;;;;;5.70;2.70;;;;;;;;;;5057243;28;20210;-63
2022/08/29 10:23:37;;;;;;;6.00;2.63;;;;;;;;;;5058633;28;20190;-63
2022/08/29 10:26:26;;;;;;;5.13;3.03;;;;;;;;;;5066595;28;20206;-63
2022/08/29 10:29:04;;;;;;;5.73;2.80;;;;;;;;;;5063010;28;20203;-63
2022/08/29 10:31:41;;;;;;;7.00;3.20;;;;;;;;;;5036557;28;20425;-67
2022/08/29 10:34:27;;;;;;;6.33;3.10;;;;;;;;;;5064311;28;20228;-66
2022/08/29 10:37:19;;;;;;;8.37;3.80;;;;;;;;;;5064283;28;20586;-63
2022/08/29 10:40:10;;;;;;;7.80;2.97;;;;;;;;;;5069698;28;20670;-63
2022/08/29 10:42:48;;;;;;;5.10;3.20;;;;;;;;;;5064167;28;20206;-63
2022/08/29 10:45:24;;;;;;;4.80;2.70;;;;;;;;;;5043783;28;20213;-63
2022/08/29 10:48:13;;;;;;;3.83;2.53;;;;;;;;;;5067705;28;20208;-63
2022/08/29 10:51:08;;;;;;;3.80;2.57;;;;;;;;;;5074108;28;20213;-68
2022/08/29 10:53:45;;;;;;;3.70;2.50;;;;;;;;;;5059599;28;20229;-70
2022/08/29 10:56:28;;;;;;;3.73;2.73;;;;;;;;;;5044849;28;20209;-70
2022/08/29 10:59:11;;;;;;;5.20;2.87;;;;;;;;;;5038319;28;20206;-68
2022/08/29 11:01:44;;;;;;;11.70;2.90;;;;;;;;;;5070646;28;20210;-70
2022/08/29 11:04:16;;;;;;;6.37;3.20;;;;;;;;;;5062516;28;20214;-69
2022/08/29 11:07:08;;;;;;;4.33;2.47;;;;;;;;;;5048131;28;20193;-68
2022/08/29 11:09:56;;;;;;;3.87;2.67;;;;;;;;;;5053512;28;20182;-69
2022/08/29 11:12:28;;;;;;;7.53;3.03;;;;;;;;;;5072320;28;20230;-68
2022/08/29 11:15:03;;;;;;;4.80;2.67;;;;;;;;;;5046988;28;20205;-68
2022/08/29 11:17:42;;;;;;;5.63;2.90;;;;;;;;;;5068425;28;20247;-69
2022/08/29 11:20:28;;;;;;;7.47;3.27;;;;;;;;;;5051316;28;20286;-69
2022/08/29 11:23:15;;;;;;;4.97;3.00;;;;;;;;;;5039163;28;20549;-68
2022/08/29 11:25:47;;;;;;;4.50;2.83;;;;;;;;;;5060574;28;20773;-71
2022/08/29 11:28:35;;;;;;;3.53;2.63;;;;;;;;;;5058849;28;20280;-71
2022/08/29 11:31:14;;;;;;;4.13;2.90;;;;;;;;;;5039084;28;21091;-70
2022/08/29 11:33:59;;;;;;;4.90;3.00;;;;;;;;;;5063151;28;20228;-70
2022/08/29 11:36:40;;;;;;;8.17;3.33;;;;;;;;;;5067455;28;20841;-67
2022/08/29 11:39:19;;;;;;;6.47;2.53;;;;;;;;;;5047330;28;20270;-68
2022/08/29 11:41:51;;;;;;;6.10;2.90;;;;;;;;;;5067654;28;20259;-68
2022/08/29 11:44:25;;;;;;;5.87;2.90;;;;;;;;;;5049183;28;20240;-70
2022/08/29 11:46:59;;;;;;;4.97;2.83;;;;;;;;;;5065221;28;20217;-67
2022/08/29 11:49:40;;;;;;;3.50;3.00;;;;;;;;;;5050088;28;20193;-67
2022/08/29 11:52:22;;;;;;;6.13;2.97;;;;;;;;;;5067055;28;20198;-67
2022/08/29 11:55:01;;;;;;;4.23;3.07;;;;;;;;;;5062123;28;20197;-66
2022/08/29 11:57:31;;;;;;;4.00;2.73;;;;;;;;;;5066921;28;20692;-68
2022/08/29 12:00:49;;;;;;;2.97;2.67;;;;;;;;;;5067040;28;20247;-68
2022/08/29 12:03:34;;;;;;;3.37;2.37;;;;;;;;;;5034531;28;20214;-70
2022/08/29 12:06:08;;;;;;;3.60;2.90;;;;;;;;;;5067461;28;20202;-68
2022/08/29 12:08:43;;;;;;;4.23;2.57;;;;;;;;;;5065693;28;20229;-66
2022/08/29 12:11:14;;;;;;;4.57;2.40;;;;;;;;;;5049237;28;20251;-67
2022/08/29 12:13:48;;;;;;;8.60;3.20;;;;;;;;;;5068908;28;20219;-67
2022/08/29 12:16:48;;;;;;;4.37;3.10;;;;;;;;;;5058298;28;20320;-68
2022/08/29 12:19:37;;;;;;;5.33;2.80;;;;;;;;;;5059508;28;20236;-67
2022/08/29 12:22:06;;;;;;;4.07;2.80;;;;;;;;;;5064030;28;20197;-68
2022/08/29 12:24:49;;;;;;;4.63;2.90;;;;;;;;;;5055390;28;20294;-68
2022/08/29 12:27:45;;;;;;;3.23;2.43;;;;;;;;;;5044106;28;20220;-70
2022/08/29 12:30:24;;;;;;;4.53;2.77;;;;;;;;;;5070860;28;20182;-69
2022/08/29 12:33:34;;;;;;;3.90;2.70;;;;;;;;;;5063906;28;20251;-70
2022/08/29 12:36:31;;;;;;;3.67;2.30;;;;;;;;;;4979487;28;20223;-71
2022/08/29 12:39:20;;;;;;;4.27;2.80;;;;;;;;;;4981582;28;20212;-69
2022/08/29 12:42:10;;;;;;;5.33;2.43;;;;;;;;;;4984379;28;20376;-70
2022/08/29 12:44:44;;;;;;;3.43;2.80;;;;;;;;;;4974955;28;20264;-68
2022/08/29 12:47:24;;;;;;;4.57;2.43;;;;;;;;;;4991774;28;20195;-66
2022/08/29 12:50:05;;;;;;;4.07;2.20;;;;;;;;;;4978268;28;20196;-68
2022/08/29 12:53:18;;;;;;;4.77;3.03;;;;;;;;;;4962560;28;20946;-67
2022/08/29 12:55:51;;;;;;;5.23;2.80;;;;;;;;;;4969348;28;20208;-67
2022/08/29 12:58:36;;;;;;;4.20;2.80;;;;;;;;;;4983384;28;20635;-69
2022/08/29 13:01:08;;;;;;;5.20;2.63;;;;;;;;;;4982577;28;20620;-68
2022/08/29 13:03:41;;;;;;;6.10;2.77;;;;;;;;;;4968066;28;20215;-67
2022/08/29 13:06:14;;;;;;;5.20;2.47;;;;;;;;;;4986344;28;20221;-67
2022/08/29 13:08:50;;;;;;;3.97;2.50;;;;;;;;;;5036263;28;20240;-69
2022/08/29 13:11:23;;;;;;;3.83;2.60;;;;;;;;;;5053952;28;20186;-68
2022/08/29 13:14:07;;;;;;;3.23;2.80;;;;;;;;;;5077016;28;20193;-70
2022/08/29 13:16:38;;;;;;;3.03;2.20;;;;;;;;;;5048727;28;20217;-68
2022/08/29 13:19:23;;;;;;;4.57;3.30;;;;;;;;;;5057823;28;20225;-68
2022/08/29 13:22:08;;;;;;;4.50;2.57;;;;;;;;;;5057487;28;20194;-67
2022/08/29 13:24:39;;;;;;;5.00;2.57;;;;;;;;;;5052302;28;20309;-66
2022/08/29 13:27:09;;;;;;;3.77;2.70;;;;;;;;;;5049651;28;20213;-68
2022/08/29 13:29:44;;;;;;;3.60;2.33;;;;;;;;;;5076820;28;20225;-68
2022/08/29 13:32:25;;;;;;;4.63;2.40;;;;;;;;;;5057421;28;20193;-68
2022/08/29 13:35:27;;;;;;;3.67;2.70;;;;;;;;;;5065843;28;20470;-65
2022/08/29 13:38:17;;;;;;;4.77;2.70;;;;;;;;;;5068606;28;20204;-65
2022/08/29 13:40:54;;;;;;;4.30;2.90;;;;;;;;;;5066348;28;20202;-65
2022/08/29 13:43:33;;;;;;;5.47;2.60;;;;;;;;;;5047435;28;20259;-65
2022/08/29 13:46:24;;;;;;;3.70;2.90;;;;;;;;;;5067425;28;20212;-66
2022/08/29 13:49:00;;;;;;;4.20;2.80;;;;;;;;;;5063002;28;20189;-65
2022/08/29 13:51:34;;;;;;;3.63;2.70;;;;;;;;;;5067945;28;20223;-65
2022/08/29 13:54:06;;;;;;;5.43;3.03;;;;;;;;;;5067355;28;20589;-65
2022/08/29 13:56:55;;;;;;;4.17;2.63;;;;;;;;;;5063284;28;20308;-65
2022/08/29 13:59:35;;;;;;;4.57;2.83;;;;;;;;;;5056011;28;20688;-68
2022/08/29 14:02:07;;;;;;;5.67;2.50;;;;;;;;;;5073437;28;20193;-69
2022/08/29 14:04:41;;;;;;;3.97;2.50;;;;;;;;;;5032781;28;20218;-67
2022/08/29 14:07:16;;;;;;;8.67;3.07;;;;;;;;;;5047139;28;20336;-68
2022/08/29 14:09:54;;;;;;;9.53;3.20;;;;;;;;;;5036047;28;20199;-68
2022/08/29 14:12:25;;;;;;;6.47;3.10;;;;;;;;;;5062892;28;20252;-68
2022/08/29 14:15:22;;;;;;;5.17;2.90;;;;;;;;;;5036994;28;20194;-67
2022/08/29 14:17:57;;;;;;;4.17;2.57;;;;;;;;;;5073318;28;20520;-69
2022/08/29 14:20:28;;;;;;;5.87;2.90;;;;;;;;;;5061772;28;20214;-69
2022/08/29 14:23:00;;;;;;;4.07;2.40;;;;;;;;;;5057882;28;20604;-68
2022/08/29 14:25:30;;;;;;;5.13;2.93;;;;;;;;;;5063441;28;20275;-67
2022/08/29 14:28:01;;;;;;;4.30;2.87;;;;;;;;;;5071041;28;20251;-67
2022/08/29 14:30:34;;;;;;;5.40;2.87;;;;;;;;;;5069762;28;20538;-67
2022/08/29 14:33:04;;;;;;;2.77;2.50;;;;;;;;;;5059969;28;20214;-67
2022/08/29 14:35:40;;;;;;;5.13;2.80;;;;;;;;;;5051467;28;20917;-68
2022/08/29 14:38:12;;;;;;;6.33;2.60;;;;;;;;;;5049612;28;20185;-68
2022/08/29 14:40:43;;;;;;;5.57;2.60;;;;;;;;;;5040085;28;20218;-67
2022/08/29 14:43:16;;;;;;;4.03;2.70;;;;;;;;;;5068832;28;20205;-67
2022/08/29 14:45:48;;;;;;;5.53;3.10;;;;;;;;;;5067433;28;20291;-68
2022/08/29 14:48:21;;;;;;;2.60;2.40;;;;;;;;;;5065925;28;20275;-69
2022/08/29 14:50:51;;;;;;;4.20;2.60;;;;;;;;;;5049338;28;20200;-68
2022/08/29 14:53:22;;;;;;;3.93;2.30;;;;;;;;;;5066479;28;20186;-69
2022/08/29 14:55:55;;;;;;;4.57;2.43;;;;;;;;;;5064623;28;20783;-69
2022/08/29 14:58:27;;;;;;;3.47;2.80;;;;;;;;;;5053274;28;20196;-68
2022/08/29 15:00:59;;;;;;;4.93;2.70;;;;;;;;;;5065252;28;20228;-67
2022/08/29 15:03:29;;;;;;;5.90;2.60;;;;;;;;;;5051285;28;20213;-69
2022/08/29 15:06:08;;;;;;;3.90;2.53;;;;;;;;;;5068570;28;20217;-67
2022/08/29 15:08:51;;;;;;;4.63;2.47;;;;;;;;;;5071063;28;20216;-69
2022/08/29 15:11:19;;;;;;;2.90;2.50;;;;;;;;;;5069485;28;20190;-69
2022/08/29 15:13:47;;;;;;;3.40;2.77;;;;;;;;;;5071394;28;20209;-69
2022/08/29 15:16:17;;;;;;;6.90;2.97;;;;;;;;;;5065264;28;20194;-64
2022/08/29 15:18:45;;;;;;;2.97;2.53;;;;;;;;;;5078916;28;20291;-64
2022/08/29 15:21:41;;;;;;;3.43;2.83;;;;;;;;;;5067976;28;20595;-65
2022/08/29 15:24:08;;;;;;;5.23;2.67;;;;;;;;;;5067172;28;20251;-64
2022/08/29 15:26:42;;;;;;;4.53;2.63;;;;;;;;;;5061227;28;20224;-64
2022/08/29 15:29:15;;;;;;;3.93;3.10;;;;;;;;;;5058456;28;20583;-65
2022/08/29 15:31:46;;;;;;;7.27;3.37;;;;;;;;;;5062512;28;20221;-65
2022/08/29 15:34:13;;;;;;;4.03;2.97;;;;;;;;;;5045762;28;20247;-66
2022/08/29 15:36:45;;;;;;;5.07;2.93;;;;;;;;;;5065495;28;20201;-66
2022/08/29 15:39:14;;;;;;;4.87;3.23;;;;;;;;;;5066784;28;20190;-65
2022/08/29 15:41:47;;;;;;;6.60;2.87;;;;;;;;;;5073105;28;20225;-65